createdAt,value
2018-03-11T00:01:04.099Z,58.53
2018-03-11T00:03:31.216Z,59.97
2018-03-11T00:05:58.346Z,55.17
2018-03-11T00:08:24.768Z,52.00
2018-03-11T00:10:51.151Z,49.57
2018-03-11T00:13:17.521Z,50.63
2018-03-11T00:15:43.928Z,54.33
2018-03-11T00:18:11.059Z,61.80
2018-03-11T00:20:38.242Z,54.60
2018-03-11T00:23:04.655Z,56.90
2018-03-11T00:25:31.779Z,57.80
2018-03-11T00:27:58.189Z,58.90
2018-03-11T00:30:24.612Z,57.00
2018-03-11T00:32:51.005Z,60.27
2018-03-11T00:35:17.390Z,60.07
2018-03-11T00:37:43.796Z,47.77
2018-03-11T00:40:10.216Z,77.50
2018-03-11T00:42:36.626Z,57.73
2018-03-11T00:45:03.776Z,49.87
2018-03-11T00:47:30.904Z,50.10
2018-03-11T00:49:58.028Z,49.93
2018-03-11T00:52:24.411Z,46.77
2018-03-11T00:54:51.530Z,47.13
2018-03-11T00:57:17.939Z,52.73
2018-03-11T00:59:44.327Z,56.57
2018-03-11T01:02:11.493Z,60.40
2018-03-11T01:04:37.921Z,57.80
2018-03-11T01:07:04.333Z,61.30
2018-03-11T01:09:31.499Z,61.30
2018-03-11T01:11:57.919Z,66.87
2018-03-11T01:14:25.055Z,66.70
2018-03-11T01:16:52.195Z,61.37
2018-03-11T01:19:18.600Z,68.23
2018-03-11T01:21:44.984Z,65.13
2018-03-11T01:24:12.111Z,65.17
2018-03-11T01:26:39.978Z,77.63
2018-03-11T01:29:06.452Z,62.27
2018-03-11T01:31:32.858Z,62.83
2018-03-11T01:33:59.248Z,62.73
2018-03-11T01:36:25.649Z,56.50
2018-03-11T01:38:52.054Z,65.93
2018-03-11T01:41:19.175Z,62.30
2018-03-11T01:43:47.037Z,71.03
2018-03-11T01:46:13.487Z,78.10
2018-03-11T01:48:41.369Z,72.40
2018-03-11T01:51:08.491Z,68.63
2018-03-11T01:53:34.908Z,75.00
2018-03-11T01:56:01.344Z,70.73
2018-03-11T01:58:27.781Z,74.80
2018-03-11T02:00:54.173Z,70.50
2018-03-11T02:03:20.588Z,69.70
2018-03-11T02:05:47.767Z,67.70
2018-03-11T02:08:14.168Z,70.80
2018-03-11T02:10:41.306Z,78.03
2018-03-11T02:13:09.175Z,76.00
2018-03-11T02:15:36.294Z,75.47
2018-03-11T02:18:02.719Z,76.20
2018-03-11T02:20:29.112Z,79.70
2018-03-11T02:22:56.241Z,70.23
2018-03-11T02:25:23.417Z,61.93
2018-03-11T02:27:49.833Z,63.17
2018-03-11T02:30:16.968Z,70.43
2018-03-11T02:32:44.151Z,72.23
2018-03-11T02:35:10.549Z,71.30
2018-03-11T02:37:37.681Z,78.07
2018-03-11T02:40:04.118Z,84.67
2018-03-11T02:42:30.534Z,69.07
2018-03-11T02:44:56.935Z,84.80
2018-03-11T02:47:23.355Z,76.67
2018-03-11T02:49:50.482Z,89.40
2018-03-11T02:52:17.673Z,90.73
2018-03-11T02:54:44.083Z,97.67
2018-03-11T02:57:10.471Z,85.00
2018-03-11T02:59:36.864Z,83.43
2018-03-11T03:02:03.327Z,98.10
2018-03-11T03:04:29.729Z,100.23
2018-03-11T03:06:56.095Z,97.23
2018-03-11T03:09:22.492Z,93.27
2018-03-11T03:11:48.901Z,93.53
2018-03-11T03:14:16.098Z,91.80
2018-03-11T03:16:42.705Z,85.60
2018-03-11T03:19:09.109Z,94.37
2018-03-11T03:21:35.524Z,90.93
2018-03-11T03:24:02.681Z,85.63
2018-03-11T03:26:29.086Z,97.23
2018-03-11T03:28:55.498Z,89.87
2018-03-11T03:31:21.923Z,92.43
2018-03-11T03:33:48.351Z,86.60
2018-03-11T03:36:15.054Z,87.47
2018-03-11T03:38:41.423Z,81.27
2018-03-11T03:41:07.850Z,83.47
2018-03-11T03:43:34.271Z,98.27
2018-03-11T03:46:01.436Z,89.60
2018-03-11T03:48:27.829Z,85.27
2018-03-11T03:50:54.228Z,105.90
2018-03-11T03:53:20.614Z,95.10
2018-03-11T03:55:47.747Z,86.93
2018-03-11T03:58:14.864Z,87.23
2018-03-11T04:00:41.292Z,100.80
2018-03-11T04:03:07.688Z,100.73
2018-03-11T04:05:34.115Z,89.60
2018-03-11T04:08:01.265Z,97.07
2018-03-11T04:10:28.434Z,84.33
2018-03-11T04:12:54.809Z,170.10
2018-03-11T04:15:22.747Z,90.73
2018-03-11T04:17:49.139Z,90.60
2018-03-11T04:20:16.306Z,78.27
2018-03-11T04:22:42.704Z,74.00
2018-03-11T04:25:09.848Z,80.40
2018-03-11T04:27:37.055Z,68.40
2018-03-11T04:30:03.477Z,270.77
2018-03-11T04:32:29.885Z,135.00
2018-03-11T04:34:56.304Z,81.50
2018-03-11T04:37:24.212Z,88.50
2018-03-11T04:39:50.642Z,92.33
2018-03-11T04:42:17.024Z,93.97
2018-03-11T04:44:43.424Z,90.00
2018-03-11T04:47:09.801Z,91.83
2018-03-11T04:49:36.437Z,96.77
2018-03-11T04:52:03.597Z,120.70
2018-03-11T04:54:30.709Z,103.47
2018-03-11T04:56:57.118Z,89.23
2018-03-11T04:59:23.495Z,88.87
2018-03-11T05:01:50.616Z,89.20
2018-03-11T05:04:17.003Z,115.10
2018-03-11T05:06:44.135Z,137.07
2018-03-11T05:09:10.542Z,134.17
2018-03-11T05:11:37.444Z,123.67
2018-03-11T05:14:03.840Z,131.03
2018-03-11T05:16:31.731Z,125.63
2018-03-11T05:18:58.845Z,135.90
2018-03-11T05:21:25.265Z,114.97
2018-03-11T05:23:51.661Z,132.40
2018-03-11T05:26:18.045Z,112.13
2018-03-11T05:28:45.221Z,105.27
2018-03-11T05:31:12.347Z,112.40
2018-03-11T05:33:38.726Z,106.37
2018-03-11T05:36:05.137Z,103.17
2018-03-11T05:38:32.276Z,102.77
2018-03-11T05:40:59.414Z,105.67
2018-03-11T05:43:26.581Z,107.67
2018-03-11T05:45:53.723Z,109.83
2018-03-11T05:48:20.837Z,93.40
2018-03-11T05:50:47.236Z,94.63
2018-03-11T05:53:13.624Z,108.30
2018-03-11T05:55:40.001Z,102.10
2018-03-11T05:58:06.431Z,121.40
2018-03-11T06:00:32.829Z,109.93
2018-03-11T06:02:59.983Z,104.80
2018-03-11T06:05:27.116Z,107.17
2018-03-11T06:07:55.203Z,100.80
2018-03-11T06:10:21.612Z,99.67
2018-03-11T06:12:49.534Z,102.90
2018-03-11T06:15:15.933Z,108.60
2018-03-11T06:17:43.084Z,101.57
2018-03-11T06:20:09.492Z,105.90
2018-03-11T06:22:35.903Z,119.03
2018-03-11T06:25:02.340Z,113.63
2018-03-11T06:27:28.739Z,117.63
2018-03-11T06:29:55.340Z,111.97
2018-03-11T06:32:22.509Z,103.30
2018-03-11T06:34:49.654Z,105.97
2018-03-11T06:37:16.045Z,93.83
2018-03-11T06:39:42.444Z,92.17
2018-03-11T06:42:08.822Z,76.93
2018-03-11T06:44:35.217Z,90.17
2018-03-11T06:47:01.604Z,89.20
2018-03-11T06:49:28.035Z,86.20
2018-03-11T06:51:54.470Z,81.23
2018-03-11T06:54:21.620Z,81.33
2018-03-11T06:56:47.999Z,76.00
2018-03-11T06:59:14.413Z,78.87
2018-03-11T07:01:41.562Z,71.20
2018-03-11T07:04:07.943Z,80.17
2018-03-11T07:06:34.340Z,70.70
2018-03-11T07:09:00.714Z,75.80
2018-03-11T07:11:27.122Z,82.10
2018-03-11T07:13:53.511Z,65.80
2018-03-11T07:16:20.714Z,62.17
2018-03-11T07:18:47.079Z,58.67
2018-03-11T07:21:13.460Z,62.60
2018-03-11T07:23:39.851Z,63.90
2018-03-11T07:26:06.474Z,56.07
2018-03-11T07:28:32.876Z,65.10
2018-03-11T07:30:59.275Z,61.10
2018-03-11T07:33:25.651Z,59.80
2018-03-11T07:35:52.038Z,64.40
2018-03-11T07:38:18.485Z,54.90
2018-03-11T07:40:44.903Z,50.80
2018-03-11T07:43:12.042Z,47.23
2018-03-11T07:45:38.464Z,48.40
2018-03-11T07:48:05.577Z,57.80
2018-03-11T07:50:31.968Z,48.90
2018-03-11T07:52:58.367Z,45.93
2018-03-11T07:55:24.764Z,43.53
2018-03-11T07:57:51.163Z,50.17
2018-03-11T08:00:17.563Z,45.40
2018-03-11T08:02:43.957Z,44.23
2018-03-11T08:05:10.428Z,43.10
2018-03-11T08:07:38.314Z,44.20
2018-03-11T08:10:05.449Z,45.30
2018-03-11T08:12:33.337Z,41.40
2018-03-11T08:15:00.476Z,46.73
2018-03-11T08:17:27.592Z,34.97
2018-03-11T08:19:53.994Z,46.43
2018-03-11T08:22:20.435Z,43.87
2018-03-11T08:24:46.832Z,38.80
2018-03-11T08:27:13.973Z,37.23
2018-03-11T08:29:41.084Z,32.83
2018-03-11T08:32:07.508Z,26.67
2018-03-11T08:34:33.931Z,26.50
2018-03-11T08:37:00.402Z,25.37
2018-03-11T08:39:26.775Z,26.77
2018-03-11T08:41:53.267Z,21.57
2018-03-11T08:44:19.605Z,193.40
2018-03-11T08:46:46.004Z,23.90
2018-03-11T08:49:12.408Z,20.73
2018-03-11T08:51:38.788Z,29.87
2018-03-11T08:54:05.207Z,19.97
2018-03-11T08:56:31.632Z,25.73
2018-03-11T08:58:58.007Z,28.83
2018-03-11T09:01:24.384Z,23.23
2018-03-11T09:03:50.820Z,19.70
2018-03-11T09:06:17.221Z,23.10
2018-03-11T09:08:44.359Z,29.40
2018-03-11T09:11:11.547Z,24.70
2018-03-11T09:13:37.949Z,19.70
2018-03-11T09:16:05.058Z,23.70
2018-03-11T09:18:31.460Z,40.93
2018-03-11T09:20:57.856Z,23.30
2018-03-11T09:23:24.989Z,24.23
2018-03-11T09:25:52.423Z,27.13
2018-03-11T09:28:19.078Z,34.93
2018-03-11T09:30:45.521Z,34.17
2018-03-11T09:33:12.668Z,25.17
2018-03-11T09:35:40.839Z,24.90
2018-03-11T09:38:07.227Z,21.40
2018-03-11T09:40:33.627Z,21.50
2018-03-11T09:43:00.150Z,18.33
2018-03-11T09:45:28.118Z,23.63
2018-03-11T09:47:56.078Z,20.30
2018-03-11T09:50:23.232Z,20.73
2018-03-11T09:52:49.626Z,23.60
2018-03-11T09:55:16.031Z,22.53
2018-03-11T09:57:42.415Z,23.57
2018-03-11T10:00:08.854Z,18.13
2018-03-11T10:02:36.196Z,31.53
2018-03-11T10:05:02.619Z,108.37
2018-03-11T10:07:29.001Z,28.17
2018-03-11T10:09:55.385Z,48.80
2018-03-11T10:12:21.791Z,32.93
2018-03-11T10:14:48.191Z,32.57
2018-03-11T10:17:15.330Z,34.30
2018-03-11T10:19:41.790Z,48.00
2018-03-11T10:22:08.192Z,26.80
2018-03-11T10:24:34.603Z,18.00
2018-03-11T10:27:01.025Z,23.10
2018-03-11T10:29:27.459Z,32.47
2018-03-11T10:31:53.871Z,25.40
2018-03-11T10:34:20.251Z,18.60
2018-03-11T10:36:46.640Z,21.43
2018-03-11T10:39:13.988Z,28.03
2018-03-11T10:41:40.375Z,16.80
2018-03-11T10:44:06.741Z,26.10
2018-03-11T10:46:33.880Z,24.17
2018-03-11T10:49:00.297Z,24.90
2018-03-11T10:51:27.459Z,22.23
2018-03-11T10:53:53.867Z,19.53
2018-03-11T10:56:20.272Z,19.83
2018-03-11T10:58:46.691Z,22.03
2018-03-11T11:01:13.073Z,18.50
2018-03-11T11:03:45.447Z,23.20
2018-03-11T11:06:12.706Z,23.87
2018-03-11T11:08:39.865Z,20.47
2018-03-11T11:11:06.271Z,18.77
2018-03-11T11:13:32.720Z,24.23
2018-03-11T11:15:59.905Z,23.70
2018-03-11T11:18:26.313Z,26.37
2018-03-11T11:20:52.726Z,25.53
2018-03-11T11:23:19.847Z,24.53
2018-03-11T11:25:46.249Z,22.57
2018-03-11T11:28:12.669Z,23.83
2018-03-11T11:30:39.099Z,25.70
2018-03-11T11:33:06.233Z,23.30
2018-03-11T11:35:33.403Z,22.00
2018-03-11T11:37:59.816Z,20.60
2018-03-11T11:40:26.971Z,42.70
2018-03-11T11:42:53.387Z,30.77
2018-03-11T11:45:20.578Z,25.60
2018-03-11T11:47:47.689Z,42.40
2018-03-11T11:50:14.977Z,40.67
2018-03-11T11:52:41.443Z,35.57
2018-03-11T11:55:08.219Z,24.93
2018-03-11T11:57:35.379Z,43.53
2018-03-11T12:00:01.860Z,29.40
2018-03-11T12:02:28.321Z,23.50
2018-03-11T12:04:54.724Z,32.90
2018-03-11T12:07:21.160Z,22.83
2018-03-11T12:09:47.589Z,27.63
2018-03-11T12:12:14.050Z,26.20
2018-03-11T12:14:40.596Z,22.70
2018-03-11T12:17:07.761Z,27.60
2018-03-11T12:19:34.898Z,22.37
2018-03-11T12:22:01.309Z,19.27
2018-03-11T12:24:27.717Z,22.53
2018-03-11T12:26:54.103Z,19.67
2018-03-11T12:29:20.511Z,21.57
2018-03-11T12:31:46.897Z,23.30
2018-03-11T12:34:13.386Z,25.47
2018-03-11T12:36:39.798Z,22.80
2018-03-11T12:39:06.188Z,19.80
2018-03-11T12:41:33.303Z,18.87
2018-03-11T12:43:59.707Z,18.83
2018-03-11T12:46:26.101Z,18.63
2018-03-11T12:48:52.504Z,56.53
2018-03-11T12:51:18.923Z,42.80
2018-03-11T12:53:45.319Z,27.60
2018-03-11T12:56:11.735Z,36.70
2018-03-11T12:58:38.139Z,38.83
2018-03-11T13:01:04.755Z,25.53
2018-03-11T13:03:31.171Z,31.37
2018-03-11T13:05:57.550Z,111.80
2018-03-11T13:08:24.687Z,37.07
2018-03-11T13:10:51.086Z,92.67
2018-03-11T13:13:17.479Z,48.67
2018-03-11T13:15:44.618Z,43.50
2018-03-11T13:18:11.745Z,35.07
2018-03-11T13:20:50.568Z,59.63
2018-03-11T13:23:16.997Z,34.33
2018-03-11T13:25:43.477Z,25.80
2018-03-11T13:28:22.025Z,24.97
2018-03-11T13:30:48.438Z,35.03
2018-03-11T13:33:27.055Z,28.20
2018-03-11T13:35:53.464Z,26.77
2018-03-11T13:38:45.530Z,41.77
2018-03-11T13:41:11.971Z,27.43
2018-03-11T13:43:38.419Z,36.07
2018-03-11T13:46:17.021Z,30.07
2018-03-11T13:48:43.472Z,23.73
2018-03-11T13:51:09.868Z,28.10
2018-03-11T13:53:45.520Z,24.10
2018-03-11T13:56:12.608Z,25.60
2018-03-11T13:58:43.923Z,24.43
2018-03-11T14:01:11.077Z,22.23
2018-03-11T14:03:37.502Z,29.70
2018-03-11T14:06:03.992Z,33.00
2018-03-11T14:08:31.136Z,31.00
2018-03-11T14:10:57.542Z,26.07
2018-03-11T14:13:23.949Z,26.57
2018-03-11T14:15:50.434Z,24.07
2018-03-11T14:18:16.841Z,27.93
2018-03-11T14:20:43.245Z,27.80
2018-03-11T14:23:09.649Z,26.13
2018-03-11T14:25:36.812Z,29.60
2018-03-11T14:28:03.979Z,24.03
2018-03-11T14:30:30.455Z,29.43
2018-03-11T14:32:56.977Z,28.70
2018-03-11T14:35:23.380Z,25.30
2018-03-11T14:37:49.766Z,26.17
2018-03-11T14:40:16.153Z,27.90
2018-03-11T14:42:42.853Z,26.60
2018-03-11T14:45:10.003Z,24.53
2018-03-11T14:47:37.164Z,26.50
2018-03-11T14:50:04.378Z,21.00
2018-03-11T14:52:30.765Z,22.67
2018-03-11T14:54:57.273Z,25.73
2018-03-11T14:57:23.741Z,23.80
2018-03-11T14:59:50.170Z,23.07
2018-03-11T15:02:17.541Z,23.53
2018-03-11T15:04:44.990Z,23.50
2018-03-11T15:07:11.561Z,27.03
2018-03-11T15:09:38.741Z,24.97
2018-03-11T15:12:05.879Z,22.47
2018-03-11T15:14:32.293Z,41.23
2018-03-11T15:16:59.298Z,21.97
2018-03-11T15:19:25.729Z,23.33
2018-03-11T15:21:53.161Z,22.60
2018-03-11T15:24:20.570Z,22.90
2018-03-11T15:26:46.978Z,23.03
2018-03-11T15:29:16.293Z,25.60
2018-03-11T15:31:42.704Z,24.50
2018-03-11T15:34:09.134Z,21.70
2018-03-11T15:36:36.534Z,20.70
2018-03-11T15:39:03.643Z,24.53
2018-03-11T15:41:30.119Z,30.00
2018-03-11T15:43:56.600Z,31.73
2018-03-11T15:46:24.096Z,28.50
2018-03-11T15:48:53.279Z,22.00
2018-03-11T15:51:20.618Z,29.80
2018-03-11T15:53:49.607Z,22.63
2018-03-11T15:56:18.506Z,28.73
2018-03-11T15:58:45.933Z,24.57
2018-03-11T16:01:13.352Z,33.83
2018-03-11T16:03:40.608Z,19.17
2018-03-11T16:06:07.730Z,19.80
2018-03-11T16:08:34.211Z,21.13
2018-03-11T16:11:02.840Z,19.53
2018-03-11T16:13:29.316Z,22.00
2018-03-11T16:15:55.694Z,25.20
2018-03-11T16:18:22.141Z,21.43
2018-03-11T16:20:48.623Z,28.10
2018-03-11T16:23:16.648Z,19.50
2018-03-11T16:25:43.169Z,19.83
2018-03-11T16:28:09.641Z,20.20
2018-03-11T16:30:36.112Z,19.10
2018-03-11T16:33:02.526Z,22.93
2018-03-11T16:35:29.022Z,20.73
2018-03-11T16:37:55.413Z,21.13
2018-03-11T16:40:22.596Z,24.30
2018-03-11T16:42:48.988Z,24.87
2018-03-11T16:45:15.353Z,28.60
2018-03-11T16:47:41.748Z,22.10
2018-03-11T16:50:08.129Z,27.83
2018-03-11T16:52:34.507Z,26.20
2018-03-11T16:55:00.904Z,25.10
2018-03-11T16:57:27.287Z,25.93
2018-03-11T16:59:53.677Z,26.17
2018-03-11T17:02:20.519Z,33.63
2018-03-11T17:04:46.941Z,33.73
2018-03-11T17:07:13.328Z,30.50
2018-03-11T17:09:40.477Z,30.13
2018-03-11T17:12:06.937Z,31.90
2018-03-11T17:14:33.371Z,31.20
2018-03-11T17:16:59.788Z,36.70
2018-03-11T17:19:26.948Z,39.13
2018-03-11T17:21:53.347Z,26.00
2018-03-11T17:24:19.784Z,34.33
2018-03-11T17:26:46.188Z,29.00
2018-03-11T17:29:12.615Z,30.10
2018-03-11T17:31:39.021Z,35.03
2018-03-11T17:34:05.404Z,31.00
2018-03-11T17:36:31.823Z,34.60
2018-03-11T17:38:58.243Z,37.53
2018-03-11T17:41:24.660Z,31.70
2018-03-11T17:43:51.042Z,27.57
2018-03-11T17:46:18.180Z,33.53
2018-03-11T17:48:44.587Z,33.33
2018-03-11T17:51:10.993Z,30.70
2018-03-11T17:53:37.397Z,33.07
2018-03-11T17:56:03.839Z,32.97
2018-03-11T17:58:30.253Z,35.73
2018-03-11T18:00:56.653Z,35.77
2018-03-11T18:03:23.074Z,32.13
2018-03-11T18:05:49.459Z,31.87
2018-03-11T18:08:16.627Z,36.33
2018-03-11T18:10:43.057Z,34.00
2018-03-11T18:13:09.508Z,39.40
2018-03-11T18:15:35.935Z,40.13
2018-03-11T18:18:02.385Z,37.27
2018-03-11T18:20:28.840Z,37.20
2018-03-11T18:22:56.758Z,45.33
2018-03-11T18:25:23.952Z,38.27
2018-03-11T18:27:50.407Z,41.00
2018-03-11T18:30:16.805Z,40.20
2018-03-11T18:32:43.184Z,36.77
2018-03-11T18:35:09.579Z,45.27
2018-03-11T18:37:36.028Z,36.03
2018-03-11T18:40:02.461Z,46.40
2018-03-11T18:42:28.849Z,35.40
2018-03-11T18:44:55.282Z,37.90
2018-03-11T18:47:22.615Z,38.67
2018-03-11T18:49:49.819Z,37.17
2018-03-11T18:52:16.259Z,36.57
2018-03-11T18:54:42.676Z,41.70
2018-03-11T18:57:09.079Z,34.97
2018-03-11T18:59:36.266Z,38.40
2018-03-11T19:02:02.734Z,39.43
2018-03-11T19:04:29.129Z,43.20
2018-03-11T19:06:55.528Z,42.17
2018-03-11T19:09:21.985Z,37.80
2018-03-11T19:11:48.406Z,40.43
2018-03-11T19:14:14.838Z,45.37
2018-03-11T19:16:41.281Z,42.63
2018-03-11T19:19:07.701Z,41.03
2018-03-11T19:21:34.152Z,45.20
2018-03-11T19:24:00.606Z,42.93
2018-03-11T19:26:27.026Z,43.17
2018-03-11T19:28:53.500Z,42.57
2018-03-11T19:31:19.976Z,46.73
2018-03-11T19:33:48.684Z,51.43
2018-03-11T19:36:15.103Z,47.80
2018-03-11T19:38:41.522Z,48.33
2018-03-11T19:41:07.946Z,48.73
2018-03-11T19:43:34.854Z,49.47
2018-03-11T19:46:01.276Z,46.03
2018-03-11T19:48:27.710Z,48.30
2018-03-11T19:50:55.636Z,48.30
2018-03-11T19:53:22.073Z,47.00
2018-03-11T19:55:48.501Z,59.70
2018-03-11T19:58:14.903Z,50.63
2018-03-11T20:00:42.075Z,47.20
2018-03-11T20:03:08.519Z,46.27
2018-03-11T20:05:34.928Z,51.23
2018-03-11T20:08:02.121Z,46.30
2018-03-11T20:10:28.686Z,47.67
2018-03-11T20:12:56.609Z,47.90
2018-03-11T20:15:23.009Z,50.67
2018-03-11T20:17:50.184Z,50.53
2018-03-11T20:20:16.576Z,51.87
2018-03-11T20:22:42.998Z,53.33
2018-03-11T20:25:09.430Z,52.20
2018-03-11T20:27:35.822Z,49.30
2018-03-11T20:30:02.292Z,53.23
2018-03-11T20:32:28.714Z,49.57
2018-03-11T20:34:55.144Z,50.40
2018-03-11T20:37:21.593Z,45.37
2018-03-11T20:39:49.463Z,46.87
2018-03-11T20:42:17.368Z,51.83
2018-03-11T20:44:43.745Z,44.30
2018-03-11T20:47:10.146Z,46.13
2018-03-11T20:49:36.528Z,53.40
2018-03-11T20:52:02.937Z,52.33
2018-03-11T20:54:29.333Z,50.77
2018-03-11T20:56:55.705Z,49.40
2018-03-11T20:59:22.090Z,50.40
2018-03-11T21:01:49.223Z,46.33
2018-03-11T21:04:16.357Z,49.07
2018-03-11T21:06:42.784Z,54.33
2018-03-11T21:09:09.901Z,53.70
2018-03-11T21:11:36.343Z,54.33
2018-03-11T21:14:02.776Z,52.90
2018-03-11T21:16:29.166Z,52.30
2018-03-11T21:18:56.341Z,51.73
2018-03-11T21:21:22.770Z,45.77
2018-03-11T21:23:50.090Z,50.33
2018-03-11T21:26:17.224Z,59.60
2018-03-11T21:28:43.606Z,56.00
2018-03-11T21:31:10.026Z,53.43
2018-03-11T21:33:36.428Z,59.07
2018-03-11T21:36:04.354Z,53.80
2018-03-11T21:38:30.761Z,55.60
2018-03-11T21:40:57.181Z,55.90
2018-03-11T21:43:24.316Z,62.53
2018-03-11T21:45:50.704Z,53.83
2018-03-11T21:48:17.111Z,56.50
2018-03-11T21:50:43.538Z,62.60
2018-03-11T21:53:09.904Z,56.43
2018-03-11T21:55:36.304Z,58.83
2018-03-11T21:58:02.743Z,61.73
2018-03-11T22:00:29.998Z,63.17
2018-03-11T22:02:56.374Z,56.77
2018-03-11T22:05:22.779Z,56.90
2018-03-11T22:07:49.207Z,51.80
2018-03-11T22:10:15.593Z,54.10
2018-03-11T22:12:42.704Z,59.30
2018-03-11T22:15:09.105Z,65.43
2018-03-11T22:17:35.494Z,46.60
2018-03-11T22:20:03.404Z,56.17
2018-03-11T22:22:29.842Z,60.50
2018-03-11T22:24:56.304Z,54.73
2018-03-11T22:27:22.733Z,56.13
2018-03-11T22:29:49.128Z,54.33
2018-03-11T22:32:15.496Z,53.13
2018-03-11T22:34:41.947Z,49.70
2018-03-11T22:37:08.294Z,59.90
2018-03-11T22:39:35.427Z,73.90
2018-03-11T22:42:03.354Z,69.17
2018-03-11T22:44:29.770Z,77.33
2018-03-11T22:46:56.172Z,67.97
2018-03-11T22:49:23.312Z,63.47
2018-03-11T22:51:49.810Z,63.77
2018-03-11T22:54:16.223Z,57.47
2018-03-11T22:56:42.624Z,55.40
2018-03-11T22:59:09.774Z,56.57
2018-03-11T23:01:36.202Z,53.40
2018-03-11T23:04:02.596Z,59.53
2018-03-11T23:06:29.003Z,58.03
2018-03-11T23:08:55.414Z,74.03
2018-03-11T23:11:26.836Z,61.13
2018-03-11T23:13:53.231Z,61.30
2018-03-11T23:16:21.206Z,53.20
2018-03-11T23:18:59.803Z,55.30
2018-03-11T23:21:26.195Z,65.40
2018-03-11T23:23:54.063Z,63.00
2018-03-11T23:26:20.493Z,55.30
2018-03-11T23:28:46.907Z,58.17
2018-03-11T23:31:13.287Z,48.03
2018-03-11T23:33:40.423Z,48.33
2018-03-11T23:36:06.856Z,53.93
2018-03-11T23:38:33.222Z,64.00
2018-03-11T23:40:59.607Z,50.93
2018-03-11T23:43:27.511Z,52.10
2018-03-11T23:45:53.889Z,47.40
2018-03-11T23:48:20.256Z,46.73
2018-03-11T23:50:47.394Z,50.17
2018-03-11T23:53:13.766Z,56.63
2018-03-11T23:55:40.218Z,48.90
2018-03-11T23:58:06.604Z,48.13
